Time;durP1;ratioP1;P1;durP2;ratioP2;P2;SDS_P1;SDS_P2;PMS_P1;PMS_P2;Temp;Humidity;BMP_temperature;BMP_pressure;BME280_temperature;BME280_humidity;BME280_pressure;Samples;Min_cycle;Max_cycle;Signal;HPM_P1;HPM_P2
2021/01/01 00:01:37;;;;;;;34.92;19.92;;;3.50;99.90;;;;;;5014615;28;20493;-90
2021/01/01 00:04:03;;;;;;;;;;;3.50;99.90;;;;;;5015950;28;20084;-90
2021/01/01 00:06:29;;;;;;;30.98;18.02;;;3.50;99.90;;;;;;5015006;28;19905;-89
2021/01/01 00:08:55;;;;;;;35.75;20.40;;;3.50;99.90;;;;;;5000861;28;20014;-89
2021/01/01 00:11:21;;;;;;;36.28;19.20;;;3.50;99.90;;;;;;5014787;28;20033;-89
2021/01/01 00:13:46;;;;;;;33.85;20.48;;;3.50;99.90;;;;;;5016324;28;20037;-90
2021/01/01 00:16:16;;;;;;;38.80;20.95;;;3.50;99.90;;;;;;5016434;28;20033;-90
2021/01/01 00:19:12;;;;;;;37.75;20.63;;;3.50;99.90;;;;;;5010634;28;20025;-89
2021/01/01 00:21:37;;;;;;;35.22;20.48;;;3.50;99.90;;;;;;5017636;28;20121;-87
2021/01/01 00:24:03;;;;;;;42.10;24.10;;;3.50;99.90;;;;;;5005313;28;20451;-89
2021/01/01 00:26:29;;;;;;;48.70;25.67;;;3.50;99.90;;;;;;4996262;28;20037;-88
2021/01/01 00:28:54;;;;;;;42.75;22.90;;;3.50;99.90;;;;;;5012985;28;20378;-88
2021/01/01 00:31:25;;;;;;;40.63;23.92;;;3.50;99.90;;;;;;5007426;28;20095;-88
2021/01/01 00:33:51;;;;;;;47.05;27.00;;;3.50;99.90;;;;;;5003457;28;20571;-88
2021/01/01 00:36:18;;;;;;;58.15;33.00;;;3.50;99.90;;;;;;5007510;28;20026;-88
2021/01/01 00:38:50;;;;;;;79.53;45.38;;;3.50;99.90;;;;;;4999399;28;20033;-88
2021/01/01 00:41:29;;;;;;;96.70;53.50;;;3.50;99.90;;;;;;5006109;28;20026;-88
2021/01/01 00:43:56;;;;;;;90.35;53.17;;;3.50;99.90;;;;;;5001115;28;20065;-88
2021/01/01 00:46:23;;;;;;;95.55;54.53;;;3.40;99.90;;;;;;5002304;28;20033;-88
2021/01/01 00:48:50;;;;;;;96.03;55.80;;;3.40;99.90;;;;;;5001617;28;20050;-88
2021/01/01 00:51:27;;;;;;;108.40;59.28;;;3.40;99.90;;;;;;4999888;28;20026;-88
2021/01/01 00:53:53;;;;;;;114.18;63.88;;;3.40;99.90;;;;;;4999704;28;20031;-88
2021/01/01 00:56:23;;;;;;;101.28;57.72;;;3.30;99.90;;;;;;5002208;28;20025;-88
2021/01/01 00:58:50;;;;;;;84.45;48.05;;;3.30;99.90;;;;;;4998446;28;20030;-88
2021/01/01 01:01:22;;;;;;;85.43;48.25;;;3.30;99.90;;;;;;4998216;28;20028;-88
2021/01/01 01:03:51;;;;;;;77.78;42.58;;;3.30;99.90;;;;;;4995310;28;20022;-88
2021/01/01 01:06:17;;;;;;;72.10;42.10;;;3.30;99.90;;;;;;4996374;28;20356;-88
2021/01/01 01:08:43;;;;;;;71.63;40.83;;;3.20;99.90;;;;;;4998978;28;20102;-88
2021/01/01 01:11:09;;;;;;;75.65;42.50;;;3.20;99.90;;;;;;4995384;28;20046;-88
2021/01/01 01:13:35;;;;;;;70.55;40.45;;;3.20;99.90;;;;;;5003888;28;20030;-88
2021/01/01 01:16:01;;;;;;;69.82;40.92;;;3.20;99.90;;;;;;4998569;28;20104;-88
2021/01/01 01:18:26;;;;;;;74.03;39.70;;;3.20;99.90;;;;;;5003920;28;20061;-88
2021/01/01 01:20:52;;;;;;;77.97;43.60;;;3.20;99.90;;;;;;5001902;28;20026;-89
2021/01/01 01:23:20;;;;;;;74.32;42.25;;;3.20;99.90;;;;;;4999552;28;20471;-89
2021/01/01 01:25:46;;;;;;;88.63;51.05;;;3.20;99.90;;;;;;5000354;28;20022;-88
2021/01/01 01:28:12;;;;;;;90.78;50.40;;;3.10;99.90;;;;;;5007353;28;20121;-88
2021/01/01 01:30:38;;;;;;;90.35;51.10;;;3.10;99.90;;;;;;4999853;28;20502;-88
2021/01/01 01:33:03;;;;;;;88.03;50.70;;;3.10;99.90;;;;;;5005837;28;20113;-88
2021/01/01 01:35:29;;;;;;;76.10;43.80;;;3.10;99.90;;;;;;4996903;28;20037;-88
2021/01/01 01:37:55;;;;;;;84.57;47.70;;;3.10;99.90;;;;;;5004363;28;20022;-89
2021/01/01 01:40:20;;;;;;;78.22;45.53;;;3.00;99.90;;;;;;5007449;28;20461;-87
2021/01/01 01:42:46;;;;;;;70.65;42.05;;;3.00;99.90;;;;;;4998602;28;20022;-88
2021/01/01 01:45:13;;;;;;;63.45;38.35;;;3.00;99.90;;;;;;5006667;28;20496;-88
2021/01/01 01:47:39;;;;;;;64.38;37.35;;;3.00;99.90;;;;;;5001517;28;20018;-88
2021/01/01 01:50:05;;;;;;;61.08;36.95;;;3.10;99.90;;;;;;5003838;28;20117;-88
2021/01/01 01:52:33;;;;;;;88.05;48.55;;;3.00;99.90;;;;;;4999090;28;20033;-88
2021/01/01 01:55:00;;;;;;;118.60;64.90;;;3.00;99.90;;;;;;5004402;28;20478;-87
2021/01/01 01:57:26;;;;;;;127.40;75.43;;;3.00;99.90;;;;;;5002727;28;20023;-88
2021/01/01 01:59:55;;;;;;;128.93;72.90;;;3.00;99.90;;;;;;4998328;28;20029;-88
2021/01/01 02:02:25;;;;;;;141.30;78.38;;;3.00;99.90;;;;;;4999140;28;20035;-88
2021/01/01 02:04:50;;;;;;;147.15;86.80;;;2.90;99.90;;;;;;5001696;28;20386;-88
2021/01/01 02:07:16;;;;;;;161.13;85.22;;;2.90;99.90;;;;;;5000567;28;20019;-88
2021/01/01 02:09:44;;;;;;;137.93;80.85;;;2.90;99.90;;;;;;4999706;28;20032;-88
2021/01/01 02:12:10;;;;;;;132.50;75.22;;;2.90;99.90;;;;;;4996654;28;20038;-88
2021/01/01 02:14:36;;;;;;;120.32;67.97;;;2.90;99.90;;;;;;4998021;28;20053;-88
2021/01/01 02:17:02;;;;;;;104.55;61.45;;;2.90;99.90;;;;;;5000616;28;20057;-88
2021/01/01 02:19:27;;;;;;;111.10;64.07;;;2.90;99.90;;;;;;5003179;28;20018;-88
2021/01/01 02:21:59;;;;;;;123.55;69.20;;;2.90;99.90;;;;;;5006132;28;20501;-88
2021/01/01 02:24:24;;;;;;;119.05;71.22;;;2.80;99.90;;;;;;5003875;28;20022;-87
2021/01/01 02:26:51;;;;;;;128.18;70.45;;;2.80;99.90;;;;;;4998510;28;20018;-87
2021/01/01 02:29:16;;;;;;;118.60;66.25;;;2.80;99.90;;;;;;5004583;28;20029;-89
2021/01/01 02:31:42;;;;;;;132.70;73.70;;;2.80;99.90;;;;;;5013828;28;20042;-88
2021/01/01 02:34:07;;;;;;;122.45;69.95;;;2.80;99.90;;;;;;5016854;28;20497;-88
2021/01/01 02:36:33;;;;;;;136.57;78.10;;;2.80;99.90;;;;;;5002633;28;20030;-88
2021/01/01 02:38:58;;;;;;;133.43;74.32;;;2.80;99.90;;;;;;5001567;28;20059;-88
2021/01/01 02:41:24;;;;;;;128.68;71.32;;;2.80;99.90;;;;;;5022773;28;20028;-88
2021/01/01 02:43:49;;;;;;;121.03;67.95;;;2.80;99.90;;;;;;5013497;28;20101;-88
2021/01/01 02:46:15;;;;;;;107.32;62.58;;;2.90;99.90;;;;;;5002944;28;20021;-88
2021/01/01 02:48:40;;;;;;;102.63;59.70;;;2.90;99.90;;;;;;5006208;28;20275;-88
2021/01/01 02:51:06;;;;;;;102.57;57.60;;;2.90;99.90;;;;;;5000513;28;20112;-88
2021/01/01 02:53:31;;;;;;;98.07;55.03;;;2.90;99.90;;;;;;5006432;28;20073;-88
2021/01/01 02:55:57;;;;;;;94.45;52.33;;;2.80;99.90;;;;;;4999770;28;20018;-88
2021/01/01 02:58:22;;;;;;;94.22;50.38;;;2.80;99.90;;;;;;5003040;28;20112;-87
2021/01/01 03:00:49;;;;;;;93.75;50.78;;;2.80;99.90;;;;;;4995990;28;20169;-89
2021/01/01 03:03:14;;;;;;;92.35;51.13;;;2.80;99.90;;;;;;5001453;28;20037;-88
2021/01/01 03:05:40;;;;;;;87.10;47.92;;;2.80;99.90;;;;;;5008129;28;20471;-88
2021/01/01 03:08:05;;;;;;;90.43;49.20;;;2.80;99.90;;;;;;5004275;28;20112;-87
2021/01/01 03:10:31;;;;;;;95.60;52.78;;;2.70;99.90;;;;;;5006672;28;20029;-88
2021/01/01 03:12:57;;;;;;;94.22;53.63;;;2.70;99.90;;;;;;5004642;28;20383;-88
2021/01/01 03:15:23;;;;;;;101.55;56.60;;;2.70;99.90;;;;;;5003709;28;20032;-88
2021/01/01 03:17:48;;;;;;;110.35;61.08;;;2.60;99.90;;;;;;5003395;28;20031;-88
2021/01/01 03:20:14;;;;;;;106.28;59.28;;;2.50;99.90;;;;;;5006470;28;20049;-88
2021/01/01 03:22:40;;;;;;;105.38;58.90;;;2.50;99.90;;;;;;5004716;28;20453;-87
2021/01/01 03:25:06;;;;;;;106.10;59.88;;;2.50;99.90;;;;;;4999598;28;20014;-88
2021/01/01 03:27:32;;;;;;;105.35;58.03;;;2.40;99.90;;;;;;5002708;28;20068;-88
2021/01/01 03:29:58;;;;;;;115.05;61.90;;;2.40;99.90;;;;;;5008499;28;20022;-87
2021/01/01 03:32:24;;;;;;;114.60;62.92;;;2.40;99.90;;;;;;5003502;28;20030;-87
2021/01/01 03:34:49;;;;;;;116.90;63.60;;;2.40;99.90;;;;;;5002979;28;20029;-88
2021/01/01 03:37:15;;;;;;;109.65;60.17;;;2.40;99.90;;;;;;4999546;28;20113;-88
2021/01/01 03:39:41;;;;;;;104.93;58.67;;;2.40;99.90;;;;;;5008489;28;20022;-88
2021/01/01 03:42:09;;;;;;;107.20;59.45;;;2.30;99.90;;;;;;5012676;28;20090;-87
2021/01/01 03:44:35;;;;;;;134.73;71.50;;;2.30;99.90;;;;;;5018269;28;20014;-88
2021/01/01 03:47:03;;;;;;;121.80;67.43;;;2.30;99.90;;;;;;5013894;28;20049;-88
2021/01/01 03:49:28;;;;;;;111.75;60.15;;;2.30;99.90;;;;;;5006127;28;20044;-88
2021/01/01 03:51:54;;;;;;;107.60;60.28;;;2.30;99.90;;;;;;5005894;28;20446;-89
2021/01/01 03:54:19;;;;;;;100.20;57.28;;;2.30;99.90;;;;;;5003855;28;20431;-89
2021/01/01 03:56:45;;;;;;;106.00;56.65;;;2.30;99.90;;;;;;4999589;28;20037;-89
2021/01/01 03:59:11;;;;;;;110.72;57.88;;;2.30;99.90;;;;;;5003380;28;20105;-88
2021/01/01 04:01:36;;;;;;;115.38;62.05;;;2.30;99.90;;;;;;5000961;28;20033;-89
2021/01/01 04:04:02;;;;;;;127.10;68.63;;;2.30;99.90;;;;;;5003306;28;20068;-89
2021/01/01 04:06:27;;;;;;;133.82;72.93;;;2.30;99.90;;;;;;5002863;28;20418;-88
2021/01/01 04:08:53;;;;;;;146.88;76.55;;;2.30;99.90;;;;;;5006986;28;20033;-88
2021/01/01 04:11:18;;;;;;;134.00;72.88;;;2.30;99.90;;;;;;5004038;28;20166;-88
2021/01/01 04:13:44;;;;;;;162.20;91.32;;;2.30;99.90;;;;;;5020558;28;20022;-89
2021/01/01 04:16:09;;;;;;;197.82;107.72;;;2.30;99.90;;;;;;5006401;28;20485;-89
2021/01/01 04:18:35;;;;;;;245.45;130.02;;;2.30;99.90;;;;;;5002915;28;20467;-89
2021/01/01 04:21:00;;;;;;;227.38;131.15;;;2.20;99.90;;;;;;5005029;28;20022;-89
2021/01/01 04:23:26;;;;;;;260.60;142.30;;;2.20;99.90;;;;;;5021312;28;20019;-89
2021/01/01 04:25:51;;;;;;;290.50;160.57;;;2.20;99.90;;;;;;4998647;28;20037;-89
2021/01/01 04:28:17;;;;;;;290.42;165.30;;;2.20;99.90;;;;;;4998622;28;20088;-89
2021/01/01 04:30:42;;;;;;;299.27;164.45;;;2.20;99.90;;;;;;5004247;28;20850;-89
2021/01/01 04:33:08;;;;;;;265.35;147.85;;;2.20;99.90;;;;;;4999449;28;20030;-89
2021/01/01 04:35:34;;;;;;;260.60;145.32;;;2.20;99.90;;;;;;5002431;28;20022;-89
2021/01/01 04:37:59;;;;;;;243.18;132.93;;;2.30;99.90;;;;;;5005279;28;20026;-89
2021/01/01 04:40:25;;;;;;;258.88;146.05;;;2.30;99.90;;;;;;5001634;28;20026;-89
2021/01/01 04:42:51;;;;;;;283.23;157.48;;;2.40;99.90;;;;;;5000824;28;20026;-89
2021/01/01 04:45:17;;;;;;;302.45;166.52;;;2.40;99.90;;;;;;4994370;28;20493;-89
2021/01/01 04:47:43;;;;;;;284.67;163.18;;;2.30;99.90;;;;;;4999734;28;20390;-89
2021/01/01 04:50:09;;;;;;;271.08;156.65;;;2.30;99.90;;;;;;5005201;28;20018;-89
2021/01/01 04:52:35;;;;;;;238.15;133.75;;;2.20;99.90;;;;;;4999333;28;20505;-89
2021/01/01 04:55:00;;;;;;;219.18;123.38;;;2.20;99.90;;;;;;5003298;28;20065;-89
2021/01/01 04:57:29;;;;;;;216.02;119.20;;;2.20;99.90;;;;;;5005874;28;20022;-88
2021/01/01 04:59:55;;;;;;;192.23;111.03;;;2.20;99.90;;;;;;5000518;28;20509;-89
2021/01/01 05:02:21;;;;;;;227.60;125.97;;;2.20;99.90;;;;;;4994177;28;20089;-88
2021/01/01 05:04:48;;;;;;;261.92;145.63;;;2.20;99.90;;;;;;5003546;28;20498;-89
2021/01/01 05:07:20;;;;;;;261.17;144.75;;;2.20;99.90;;;;;;5007293;28;20026;-88
2021/01/01 05:09:48;;;;;;;268.83;149.30;;;2.20;99.90;;;;;;5000925;28;20509;-89
2021/01/01 05:12:14;;;;;;;253.75;137.23;;;2.20;99.90;;;;;;5004935;28;20025;-89
2021/01/01 05:14:41;;;;;;;230.13;123.57;;;2.10;99.90;;;;;;4999610;28;20030;-89
2021/01/01 05:17:07;;;;;;;213.93;119.95;;;2.10;99.90;;;;;;5004829;28;20022;-89
2021/01/01 05:19:35;;;;;;;212.32;113.93;;;2.10;99.90;;;;;;5012372;28;20040;-89
2021/01/01 05:22:06;;;;;;;215.05;114.15;;;2.20;99.90;;;;;;4999744;28;20117;-89
2021/01/01 05:24:41;;;;;;;208.77;113.43;;;2.20;99.90;;;;;;5001772;28;20037;-88
2021/01/01 05:27:16;;;;;;;207.60;111.13;;;2.20;99.90;;;;;;4998981;28;20023;-89
2021/01/01 05:29:43;;;;;;;180.02;98.28;;;2.10;99.90;;;;;;5003456;28;20022;-89
2021/01/01 05:32:09;;;;;;;166.48;92.82;;;2.10;99.90;;;;;;5005154;28;20057;-89
2021/01/01 05:34:43;;;;;;;176.85;92.40;;;2.10;99.90;;;;;;5002909;28;20073;-88
2021/01/01 05:37:09;;;;;;;147.20;80.78;;;2.20;99.90;;;;;;5007998;28;20108;-89
2021/01/01 05:39:35;;;;;;;154.13;83.50;;;2.20;99.90;;;;;;5005264;28;20061;-89
2021/01/01 05:42:00;;;;;;;146.85;79.30;;;2.20;99.90;;;;;;4994210;28;20053;-89
2021/01/01 05:44:28;;;;;;;129.43;70.05;;;2.30;99.90;;;;;;5001576;28;20018;-89
2021/01/01 05:46:57;;;;;;;143.80;75.65;;;2.30;99.90;;;;;;5007171;28;20021;-90
2021/01/01 05:49:41;;;;;;;125.22;68.40;;;2.30;99.90;;;;;;5004801;28;20401;-89
2021/01/01 05:52:11;;;;;;;115.97;62.58;;;2.30;99.90;;;;;;4998327;28;20092;-88
2021/01/01 05:54:41;;;;;;;128.98;71.22;;;2.20;99.90;;;;;;5005479;28;20479;-90
2021/01/01 05:57:09;;;;;;;115.70;62.50;;;2.20;99.90;;;;;;5006347;28;20079;-88
2021/01/01 05:59:55;;;;;;;126.95;66.97;;;2.20;99.90;;;;;;5004044;28;20031;-89
2021/01/01 06:02:22;;;;;;;127.43;67.13;;;2.20;99.90;;;;;;5001562;28;20038;-89
2021/01/01 06:04:50;;;;;;;108.55;56.10;;;2.10;99.90;;;;;;4996951;28;20080;-89
2021/01/01 06:07:18;;;;;;;104.55;53.20;;;2.20;99.90;;;;;;5003381;28;20479;-89
2021/01/01 06:09:45;;;;;;;115.25;57.85;;;2.10;99.90;;;;;;4998168;28;20076;-89
2021/01/01 06:12:12;;;;;;;110.38;57.50;;;2.10;99.90;;;;;;5003974;28;20076;-89
2021/01/01 06:14:41;;;;;;;97.85;52.35;;;2.10;99.90;;;;;;5012969;28;20113;-90
2021/01/01 06:17:09;;;;;;;92.18;47.88;;;2.20;99.90;;;;;;5013538;28;20014;-89
2021/01/01 06:19:59;;;;;;;101.65;51.05;;;2.20;99.90;;;;;;5010669;28;20425;-90
2021/01/01 06:22:32;;;;;;;102.80;54.28;;;2.20;99.90;;;;;;5008940;28;20022;-90
2021/01/01 06:24:58;;;;;;;102.22;52.20;;;2.20;99.90;;;;;;5006909;28;20034;-88
2021/01/01 06:27:31;;;;;;;103.80;52.22;;;2.10;99.90;;;;;;4998475;28;20096;-90
2021/01/01 06:30:11;;;;;;;120.47;58.90;;;2.20;99.90;;;;;;5006086;28;20019;-88
2021/01/01 06:32:37;;;;;;;117.55;55.88;;;2.20;99.90;;;;;;5002700;28;20561;-89
2021/01/01 06:35:14;;;;;;;107.68;52.58;;;2.10;99.90;;;;;;5000010;28;20061;-88
2021/01/01 06:37:42;;;;;;;107.93;56.20;;;2.20;99.90;;;;;;5001330;28;20014;-90
2021/01/01 06:40:31;;;;;;;99.18;51.03;;;2.10;99.90;;;;;;4997667;28;20105;-89
2021/01/01 06:43:04;;;;;;;84.77;41.50;;;2.20;99.90;;;;;;4995342;28;20022;-89
2021/01/01 06:45:35;;;;;;;81.63;43.15;;;2.20;99.90;;;;;;4998087;28;20062;-90
2021/01/01 06:48:07;;;;;;;98.93;49.40;;;2.20;99.90;;;;;;5003172;28;20483;-89
2021/01/01 06:50:44;;;;;;;90.15;48.67;;;2.20;99.90;;;;;;5006114;28;20528;-88
2021/01/01 06:53:15;;;;;;;81.72;42.92;;;2.20;99.90;;;;;;5012120;28;20096;-89
2021/01/01 06:55:44;;;;;;;86.70;44.10;;;2.20;99.90;;;;;;5006248;28;20029;-89
2021/01/01 06:58:11;;;;;;;70.32;37.80;;;2.20;99.90;;;;;;5004083;28;20023;-89
2021/01/01 07:00:49;;;;;;;71.40;34.97;;;2.20;99.90;;;;;;5004911;28;20033;-89
2021/01/01 07:03:27;;;;;;;59.72;32.05;;;2.30;99.90;;;;;;5003662;28;20010;-89
2021/01/01 07:06:19;;;;;;;74.55;34.83;;;2.30;99.90;;;;;;4998284;28;20030;-89
2021/01/01 07:08:45;;;;;;;81.03;39.35;;;2.20;99.90;;;;;;5000319;28;20466;-89
2021/01/01 07:11:11;;;;;;;69.88;36.83;;;2.20;99.90;;;;;;4998440;28;20030;-89
2021/01/01 07:13:43;;;;;;;76.60;37.42;;;2.20;99.90;;;;;;5012428;28;20033;-89
2021/01/01 07:16:09;;;;;;;76.80;39.95;;;2.20;99.90;;;;;;5014123;28;20022;-90
2021/01/01 07:18:35;;;;;;;81.20;39.92;;;2.10;99.90;;;;;;5010705;28;20117;-90
2021/01/01 07:21:01;;;;;;;84.03;41.10;;;2.10;99.90;;;;;;4996510;28;20594;-89
2021/01/01 07:23:31;;;;;;;71.72;37.22;;;2.20;99.90;;;;;;5003040;28;20430;-89
2021/01/01 07:25:57;;;;;;;71.55;36.38;;;2.10;99.90;;;;;;5017507;28;20022;-89
2021/01/01 07:28:24;;;;;;;83.22;44.60;;;2.10;99.90;;;;;;5018358;28;20022;-90
2021/01/01 07:30:50;;;;;;;95.20;46.65;;;2.10;99.90;;;;;;5015179;28;20045;-90
2021/01/01 07:33:24;;;;;;;90.95;46.85;;;2.10;99.90;;;;;;5015222;28;20091;-90
2021/01/01 07:35:54;;;;;;;86.78;44.33;;;2.10;99.90;;;;;;5014795;28;20477;-89
2021/01/01 07:38:21;;;;;;;80.85;40.17;;;2.10;99.90;;;;;;5013314;28;20107;-89
2021/01/01 07:40:47;;;;;;;80.90;40.53;;;2.10;99.90;;;;;;5015300;28;20034;-90
2021/01/01 07:43:13;;;;;;;85.95;41.97;;;2.00;99.90;;;;;;5014807;28;20397;-90
2021/01/01 07:45:39;;;;;;;83.43;43.03;;;2.10;99.90;;;;;;5014994;28;20014;-90
2021/01/01 07:48:05;;;;;;;77.78;39.95;;;2.10;99.90;;;;;;5014842;28;20030;-90
2021/01/01 07:50:32;;;;;;;89.85;44.28;;;2.10;99.90;;;;;;5015355;28;20028;-89
2021/01/01 07:53:24;;;;;;;81.80;40.92;;;2.20;99.90;;;;;;5014698;28;20032;-89
2021/01/01 07:55:49;;;;;;;81.38;41.15;;;2.20;99.90;;;;;;5010750;28;20045;-89
2021/01/01 07:58:15;;;;;;;63.67;35.30;;;2.20;99.90;;;;;;5014542;28;20381;-90
2021/01/01 08:00:46;;;;;;;65.55;33.60;;;2.30;99.90;;;;;;5014751;28;20084;-89
2021/01/01 08:03:13;;;;;;;62.97;33.95;;;2.40;99.90;;;;;;5015783;28;20029;-89
2021/01/01 08:05:42;;;;;;;61.00;31.95;;;2.40;99.90;;;;;;5014351;28;20017;-90
2021/01/01 08:08:13;;;;;;;67.75;34.53;;;2.50;99.90;;;;;;5015494;28;20109;-89
2021/01/01 08:10:40;;;;;;;58.92;32.67;;;2.50;99.90;;;;;;5012570;28;20382;-90
2021/01/01 08:13:16;;;;;;;68.93;34.47;;;2.60;99.90;;;;;;5015240;28;20029;-90
2021/01/01 08:15:42;;;;;;;65.72;34.05;;;2.60;99.90;;;;;;5013646;28;20033;-88
2021/01/01 08:18:15;;;;;;;68.57;37.03;;;2.60;99.90;;;;;;5013842;28;20051;-90
2021/01/01 08:20:46;;;;;;;72.18;38.70;;;2.60;99.90;;;;;;5014633;28;20026;-89
2021/01/01 08:23:16;;;;;;;78.72;42.03;;;2.60;99.90;;;;;;5014510;28;20485;-89
2021/01/01 08:25:42;;;;;;;;;;;2.60;99.90;;;;;;5014693;28;20037;-89
2021/01/01 08:28:09;;;;;;;70.65;36.50;;;2.60;99.90;;;;;;5013628;28;19996;-88
2021/01/01 08:30:37;;;;;;;65.03;35.50;;;2.50;99.90;;;;;;5013712;28;20085;-89
2021/01/01 08:33:05;;;;;;;73.95;40.58;;;2.60;99.90;;;;;;5015541;28;20485;-89
2021/01/01 08:35:32;;;;;;;74.25;40.35;;;2.70;99.90;;;;;;5014179;28;20029;-88
2021/01/01 08:37:58;;;;;;;63.28;34.13;;;2.70;99.90;;;;;;5014437;28;20026;-89
2021/01/01 08:40:23;;;;;;;75.60;37.88;;;2.70;99.90;;;;;;5015275;28;20041;-89
2021/01/01 08:42:54;;;;;;;69.20;37.97;;;2.80;99.90;;;;;;5013745;28;20057;-89
2021/01/01 08:45:21;;;;;;;74.57;40.22;;;2.80;99.90;;;;;;5013796;28;20121;-88
2021/01/01 08:47:49;;;;;;;72.47;38.42;;;2.80;99.90;;;;;;5013565;28;20054;-89
2021/01/01 08:50:23;;;;;;;67.05;34.88;;;2.80;99.90;;;;;;5013562;28;20500;-88
2021/01/01 08:52:57;;;;;;;60.40;33.08;;;2.90;99.90;;;;;;5011769;28;20018;-88
2021/01/01 08:55:23;;;;;;;66.40;37.25;;;2.90;99.90;;;;;;5013096;28;20028;-89
2021/01/01 08:57:49;;;;;;;66.18;36.88;;;2.90;99.90;;;;;;4994272;28;20141;-88
2021/01/01 09:00:15;;;;;;;66.75;37.20;;;3.00;99.90;;;;;;4994246;28;20027;-88
2021/01/01 09:02:41;;;;;;;57.88;31.65;;;3.00;99.90;;;;;;5002773;28;20018;-89
2021/01/01 09:05:11;;;;;;;66.68;35.22;;;3.10;99.90;;;;;;5012987;28;20022;-89
2021/01/01 09:07:37;;;;;;;71.13;37.72;;;3.20;99.90;;;;;;5010817;28;20045;-90
2021/01/01 09:10:18;;;;;;;67.03;38.53;;;3.30;99.90;;;;;;5012160;28;20145;-89
2021/01/01 09:12:44;;;;;;;65.38;35.55;;;3.30;99.90;;;;;;4998891;28;20030;-90
2021/01/01 09:15:27;;;;;;;61.70;33.13;;;3.30;99.90;;;;;;5006309;28;20036;-89
2021/01/01 09:18:02;;;;;;;68.43;35.05;;;3.40;99.90;;;;;;4994016;28;20077;-90
2021/01/01 09:20:28;;;;;;;62.33;34.45;;;3.40;99.90;;;;;;5000424;28;20037;-89
2021/01/01 09:22:59;;;;;;;57.47;33.08;;;3.40;99.90;;;;;;5009348;28;20026;-89
2021/01/01 09:25:25;;;;;;;59.58;33.08;;;3.50;99.90;;;;;;5012851;28;20036;-88
2021/01/01 09:27:52;;;;;;;62.50;33.17;;;3.50;99.90;;;;;;5012893;28;20084;-89
2021/01/01 09:30:20;;;;;;;52.80;29.90;;;3.50;99.90;;;;;;5014044;28;20022;-89
2021/01/01 09:32:47;;;;;;;59.28;31.38;;;3.50;99.90;;;;;;5012770;28;20046;-89
2021/01/01 09:35:14;;;;;;;56.13;32.28;;;3.60;99.90;;;;;;5013874;28;20025;-89
2021/01/01 09:37:51;;;;;;;51.80;28.17;;;3.60;99.90;;;;;;5011954;28;20028;-89
2021/01/01 09:40:20;;;;;;;60.25;31.23;;;3.50;99.90;;;;;;5013517;28;20076;-90
2021/01/01 09:42:46;;;;;;;54.27;28.30;;;3.50;99.90;;;;;;5013810;28;20048;-90
2021/01/01 09:45:13;;;;;;;53.65;30.02;;;3.40;99.90;;;;;;5008417;28;20243;-90
2021/01/01 09:47:39;;;;;;;56.70;31.58;;;3.40;99.90;;;;;;5010828;28;20025;-87
2021/01/01 09:50:06;;;;;;;50.60;28.85;;;3.40;99.90;;;;;;5004344;28;20022;-91
2021/01/01 09:52:31;;;;;;;44.03;25.85;;;3.50;99.90;;;;;;5010490;28;20033;-88
2021/01/01 09:54:57;;;;;;;47.90;27.45;;;3.50;99.90;;;;;;5006791;28;20026;-89
2021/01/01 09:57:23;;;;;;;46.25;25.02;;;3.70;99.90;;;;;;5011138;28;20508;-89
2021/01/01 09:59:48;;;;;;;45.10;24.40;;;3.80;99.90;;;;;;5008241;28;21694;-89
2021/01/01 10:02:14;;;;;;;44.65;24.52;;;3.90;99.90;;;;;;5010779;28;20030;-88
2021/01/01 10:04:39;;;;;;;42.85;24.38;;;4.00;99.90;;;;;;4997338;28;20098;-88
2021/01/01 10:07:05;;;;;;;35.40;21.23;;;4.10;99.90;;;;;;5002196;28;20493;-89
2021/01/01 10:09:31;;;;;;;37.33;20.42;;;4.30;99.90;;;;;;5001206;28;20487;-88
2021/01/01 10:11:57;;;;;;;33.45;18.48;;;4.40;99.90;;;;;;5003694;28;20045;-90
2021/01/01 10:14:22;;;;;;;29.10;17.08;;;4.60;99.90;;;;;;5006071;28;20474;-92
2021/01/01 10:16:48;;;;;;;28.48;15.80;;;4.70;99.90;;;;;;5003116;28;20099;-90
2021/01/01 10:19:15;;;;;;;25.25;14.52;;;4.80;99.90;;;;;;5010962;28;20026;-91
2021/01/01 10:21:41;;;;;;;18.80;11.77;;;5.00;99.90;;;;;;5006277;28;20025;-89
2021/01/01 10:24:07;;;;;;;21.15;11.98;;;5.00;99.90;;;;;;5021164;28;20105;-89
2021/01/01 10:26:32;;;;;;;18.88;11.90;;;5.20;99.90;;;;;;4996235;28;20056;-89
2021/01/01 10:28:58;;;;;;;18.20;11.95;;;5.20;99.90;;;;;;5002003;28;20061;-90
2021/01/01 10:31:24;;;;;;;17.08;10.13;;;5.20;99.90;;;;;;5004209;28;20125;-89
2021/01/01 10:33:50;;;;;;;19.35;10.82;;;5.10;99.90;;;;;;5012720;28;20084;-89
2021/01/01 10:36:18;;;;;;;19.02;10.90;;;5.20;99.90;;;;;;5007027;28;20026;-88
2021/01/01 10:38:44;;;;;;;17.98;10.77;;;5.20;99.90;;;;;;5009563;28;20062;-89
2021/01/01 10:41:13;;;;;;;19.75;11.45;;;5.20;99.90;;;;;;5012214;28;20056;-88
2021/01/01 10:43:40;;;;;;;16.98;10.27;;;5.20;99.90;;;;;;5012206;28;20026;-89
2021/01/01 10:46:05;;;;;;;17.63;9.48;;;5.20;99.90;;;;;;5009496;28;20033;-89
2021/01/01 10:48:31;;;;;;;14.65;8.77;;;5.40;99.90;;;;;;5006299;28;20023;-89
2021/01/01 10:50:57;;;;;;;19.58;10.57;;;5.50;99.90;;;;;;5012184;28;20048;-88
2021/01/01 10:53:22;;;;;;;15.18;9.52;;;5.80;99.90;;;;;;5009392;28;20026;-89
2021/01/01 10:55:50;;;;;;;14.15;8.95;;;5.90;99.90;;;;;;5011693;28;20547;-90
2021/01/01 10:58:23;;;;;;;18.10;9.75;;;5.80;99.90;;;;;;5011519;28;20033;-91
2021/01/01 11:00:53;;;;;;;16.55;10.15;;;5.70;99.90;;;;;;5013407;28;20026;-90
2021/01/01 11:03:19;;;;;;;13.85;9.27;;;5.60;99.90;;;;;;5012400;28;20022;-92
2021/01/01 11:05:44;;;;;;;16.60;9.95;;;5.50;99.90;;;;;;5000248;28;20102;-89
2021/01/01 11:08:10;;;;;;;12.38;8.05;;;5.60;99.90;;;;;;5011908;28;20033;-90
2021/01/01 11:10:36;;;;;;;13.32;8.60;;;5.50;99.90;;;;;;5025219;28;20395;-91
2021/01/01 11:13:04;;;;;;;15.43;9.30;;;5.50;99.90;;;;;;5021832;28;20022;-91
2021/01/01 12:22:01;;;;;;;13.93;8.10;;;6.10;99.90;;;;;;4990125;28;20076;-95
2021/01/01 12:27:01;;;;;;;16.13;8.00;;;6.20;99.90;;;;;;4991551;28;20029;-91
2021/01/01 12:29:27;;;;;;;12.05;7.05;;;6.30;99.90;;;;;;4992054;28;20097;-93
2021/01/01 12:31:53;;;;;;;11.68;7.22;;;6.30;99.90;;;;;;5005475;28;20061;-91
2021/01/01 12:34:18;;;;;;;9.95;6.72;;;6.30;99.90;;;;;;5015797;28;20022;-91
2021/01/01 12:36:44;;;;;;;14.43;8.55;;;6.40;99.90;;;;;;5015339;28;20029;-91
2021/01/01 12:39:10;;;;;;;12.32;7.05;;;6.40;99.90;;;;;;5032386;28;20049;-91
2021/01/01 12:41:36;;;;;;;12.80;7.50;;;6.40;99.90;;;;;;5016728;28;20057;-91
2021/01/01 12:44:01;;;;;;;12.70;7.93;;;6.30;99.90;;;;;;5015332;28;20035;-92
2021/01/01 12:46:27;;;;;;;15.50;7.65;;;6.30;99.90;;;;;;5007513;28;20034;-92
2021/01/01 12:48:52;;;;;;;12.10;7.60;;;6.30;99.90;;;;;;5008816;28;20057;-91
2021/01/01 12:51:18;;;;;;;13.52;7.63;;;6.30;99.90;;;;;;5007724;28;20101;-91
2021/01/01 12:53:44;;;;;;;13.57;7.80;;;6.30;99.90;;;;;;5015018;28;20113;-90
2021/01/01 12:56:10;;;;;;;12.77;7.82;;;6.30;99.90;;;;;;5013641;28;20132;-90
2021/01/01 12:58:35;;;;;;;11.88;7.18;;;6.40;99.90;;;;;;5011556;28;20549;-91
2021/01/01 13:01:04;;;;;;;13.85;8.27;;;6.80;99.90;;;;;;5008252;28;20025;-91
2021/01/01 13:03:29;;;;;;;11.82;7.10;;;7.10;99.90;;;;;;5014469;28;20018;-89
2021/01/01 13:05:55;;;;;;;12.73;7.22;;;7.20;99.90;;;;;;5013504;28;20131;-90
2021/01/01 13:08:20;;;;;;;12.77;8.13;;;7.40;99.90;;;;;;5013241;28;20072;-90
2021/01/01 13:10:46;;;;;;;13.07;6.43;;;7.40;99.90;;;;;;5013445;28;20050;-91
2021/01/01 13:13:12;;;;;;;13.25;6.97;;;7.20;99.40;;;;;;5011313;28;20145;-91
2021/01/01 13:15:37;;;;;;;11.43;6.72;;;7.10;99.20;;;;;;5012961;28;20029;-90
2021/01/01 13:18:05;;;;;;;14.35;7.35;;;7.00;99.60;;;;;;5013553;28;20026;-91
2021/01/01 13:20:31;;;;;;;13.75;6.68;;;6.90;99.60;;;;;;5013019;28;20025;-92
2021/01/01 13:22:56;;;;;;;11.02;7.05;;;6.80;99.80;;;;;;5013210;28;20026;-91
2021/01/01 13:25:22;;;;;;;13.07;7.20;;;6.70;99.90;;;;;;5013025;28;20105;-90
2021/01/01 13:27:47;;;;;;;12.02;6.85;;;6.60;99.90;;;;;;5013754;28;20484;-90
2021/01/01 13:30:16;;;;;;;14.13;7.60;;;6.50;99.90;;;;;;5013337;28;20041;-92
2021/01/01 13:32:43;;;;;;;14.97;7.00;;;6.50;99.90;;;;;;5012881;28;20068;-90
2021/01/01 13:35:09;;;;;;;13.77;7.53;;;6.40;99.90;;;;;;5014349;28;20512;-90
2021/01/01 13:37:35;;;;;;;14.02;8.02;;;6.40;99.90;;;;;;5012411;28;20034;-90
2021/01/01 13:40:06;;;;;;;13.13;7.55;;;6.40;99.90;;;;;;5012336;28;20038;-92
2021/01/01 13:42:32;;;;;;;16.90;8.23;;;6.40;99.90;;;;;;5012382;28;20025;-93
2021/01/01 13:44:58;;;;;;;15.63;7.72;;;6.40;99.90;;;;;;5012639;28;20026;-90
2021/01/01 13:47:24;;;;;;;13.57;7.70;;;6.40;99.90;;;;;;5012869;28;20026;-90